createdAt,value
2018-03-01T00:00:13.636Z,1011.02
2018-03-01T00:01:13.628Z,1011.07
2018-03-01T00:02:13.647Z,1011.06
2018-03-01T00:03:13.631Z,1011.08
2018-03-01T00:04:13.634Z,1011.05
2018-03-01T00:05:13.627Z,1011.01
2018-03-01T00:06:13.621Z,1011.06
2018-03-01T00:07:13.628Z,1010.98
2018-03-01T00:08:14.516Z,1010.97
2018-03-01T00:09:13.626Z,1010.97
2018-03-01T00:10:13.617Z,1010.95
2018-03-01T00:11:13.627Z,1011.01
2018-03-01T00:12:13.617Z,1010.99
2018-03-01T00:13:13.614Z,1010.98
2018-03-01T00:14:13.615Z,1010.97
2018-03-01T00:15:13.612Z,1010.88
2018-03-01T00:16:13.646Z,1010.88
2018-03-01T00:17:13.601Z,1010.84
2018-03-01T00:18:13.614Z,1010.83
2018-03-01T00:19:13.609Z,1010.92
2018-03-01T00:20:13.620Z,1010.90
2018-03-01T00:21:13.605Z,1010.85
2018-03-01T00:22:13.596Z,1010.93
2018-03-01T00:23:13.598Z,1010.94
2018-03-01T00:24:13.599Z,1010.93
2018-03-01T00:25:13.621Z,1010.83
2018-03-01T00:26:13.595Z,1010.96
2018-03-01T00:27:13.596Z,1010.84
2018-03-01T00:28:13.588Z,1010.89
2018-03-01T00:29:13.657Z,1010.91
2018-03-01T00:30:13.587Z,1010.83
2018-03-01T00:31:13.594Z,1010.90
2018-03-01T00:32:13.584Z,1010.87
2018-03-01T00:33:13.592Z,1010.93
2018-03-01T00:34:13.593Z,1010.88
2018-03-01T00:35:13.581Z,1010.96
2018-03-01T00:36:13.581Z,1010.84
2018-03-01T00:37:13.628Z,1010.93
2018-03-01T00:38:13.563Z,1010.93
2018-03-01T00:39:13.568Z,1010.89
2018-03-01T00:40:13.578Z,1010.88
2018-03-01T00:41:13.568Z,1010.85
2018-03-01T00:42:13.573Z,1010.80
2018-03-01T00:43:13.576Z,1010.81
2018-03-01T00:44:13.565Z,1010.83
2018-03-01T00:45:13.562Z,1010.81
2018-03-01T00:46:13.593Z,1010.76
2018-03-01T00:47:13.560Z,1010.71
2018-03-01T00:48:13.573Z,1010.66
2018-03-01T00:49:13.567Z,1010.72
2018-03-01T00:50:13.561Z,1010.68
2018-03-01T00:51:13.547Z,1010.67
2018-03-01T00:52:13.547Z,1010.70
2018-03-01T00:53:13.548Z,1010.65
2018-03-01T00:54:13.553Z,1010.58
2018-03-01T00:55:13.547Z,1010.57
2018-03-01T00:56:13.545Z,1010.61
2018-03-01T00:57:13.541Z,1010.56
2018-03-01T00:58:13.546Z,1010.55
2018-03-01T00:59:13.538Z,1010.56
2018-03-01T01:00:13.554Z,1010.53
2018-03-01T01:01:13.554Z,1010.45
2018-03-01T01:02:13.574Z,1010.41
2018-03-01T01:03:13.534Z,1010.45
2018-03-01T01:04:13.531Z,1010.52
2018-03-01T01:05:13.527Z,1010.48
2018-03-01T01:06:13.537Z,1010.51
2018-03-01T01:07:13.543Z,1010.49
2018-03-01T01:08:13.523Z,1010.49
2018-03-01T01:09:13.527Z,1010.46
2018-03-01T01:10:13.528Z,1010.44
2018-03-01T01:11:13.552Z,1010.44
2018-03-01T01:12:13.540Z,1010.47
2018-03-01T01:13:13.519Z,1010.49
2018-03-01T01:14:13.507Z,1010.47
2018-03-01T01:15:13.510Z,1010.41
2018-03-01T01:16:13.514Z,1010.44
2018-03-01T01:17:13.538Z,1010.48
2018-03-01T01:18:13.521Z,1010.41
2018-03-01T01:19:13.510Z,1010.47
2018-03-01T01:20:13.539Z,1010.45
2018-03-01T01:21:13.505Z,1010.46
2018-03-01T01:22:13.507Z,1010.46
2018-03-01T01:23:13.515Z,1010.40
2018-03-01T01:24:13.542Z,1010.41
2018-03-01T01:25:13.492Z,1010.39
2018-03-01T01:26:13.490Z,1010.40
2018-03-01T01:27:13.538Z,1010.30
2018-03-01T01:28:13.499Z,1010.33
2018-03-01T01:29:13.503Z,1010.32
2018-03-01T01:30:13.494Z,1010.42
2018-03-01T01:31:13.508Z,1010.33
2018-03-01T01:32:13.489Z,1010.33
2018-03-01T01:33:13.528Z,1010.28
2018-03-01T01:34:13.488Z,1010.30
2018-03-01T01:35:13.499Z,1010.25
2018-03-01T01:36:13.483Z,1010.23
2018-03-01T01:37:13.486Z,1010.29
2018-03-01T01:38:13.475Z,1010.21
2018-03-01T01:39:13.486Z,1010.23
2018-03-01T01:40:13.510Z,1010.26
2018-03-01T01:41:13.480Z,1010.23
2018-03-01T01:42:13.518Z,1010.16
2018-03-01T01:43:13.485Z,1010.26
2018-03-01T01:44:13.472Z,1010.33
2018-03-01T01:45:13.469Z,1010.22
2018-03-01T01:46:13.488Z,1010.21
2018-03-01T01:47:13.469Z,1010.24
2018-03-01T01:48:13.481Z,1010.24
2018-03-01T01:49:13.466Z,1010.17
2018-03-01T01:50:13.457Z,1010.12
2018-03-01T01:51:13.451Z,1010.05
2018-03-01T01:52:13.462Z,1010.12
2018-03-01T01:53:13.454Z,1010.11
2018-03-01T01:54:13.463Z,1010.08
2018-03-01T01:55:13.502Z,1010.05
2018-03-01T01:56:13.448Z,1010.03
2018-03-01T01:57:13.456Z,1010.09
2018-03-01T01:58:13.449Z,1010.02
2018-03-01T01:59:13.467Z,1010.03
2018-03-01T02:00:14.003Z,1010.06
2018-03-01T02:01:13.458Z,1010.08
2018-03-01T02:02:13.437Z,1010.06
2018-03-01T02:03:13.436Z,1010.03
2018-03-01T02:04:13.438Z,1010.04
2018-03-01T02:05:13.435Z,1010.03
2018-03-01T02:06:13.439Z,1009.99
2018-03-01T02:07:13.466Z,1009.96
2018-03-01T02:08:13.426Z,1010.04
2018-03-01T02:09:13.454Z,1009.98
2018-03-01T02:10:13.434Z,1009.95
2018-03-01T02:11:13.434Z,1009.95
2018-03-01T02:12:13.439Z,1009.89
2018-03-01T02:13:13.504Z,1009.89
2018-03-01T02:14:13.419Z,1009.90
2018-03-01T02:15:13.421Z,1009.78
2018-03-01T02:16:13.413Z,1009.70
2018-03-01T02:17:13.411Z,1009.64
2018-03-01T02:18:13.419Z,1009.57
2018-03-01T02:19:13.423Z,1009.67
2018-03-01T02:20:13.416Z,1009.56
2018-03-01T02:21:13.427Z,1009.53
2018-03-01T02:22:13.410Z,1009.51
2018-03-01T02:23:13.411Z,1009.53
2018-03-01T02:24:13.416Z,1009.57
2018-03-01T02:25:13.413Z,1009.50
2018-03-01T02:26:13.411Z,1009.46
2018-03-01T02:27:13.406Z,1009.50
2018-03-01T02:28:13.400Z,1009.49
2018-03-01T02:29:13.396Z,1009.50
2018-03-01T02:30:13.396Z,1009.52
2018-03-01T02:31:13.403Z,1009.51
2018-03-01T02:32:13.388Z,1009.49
2018-03-01T02:33:13.410Z,1009.50
2018-03-01T02:34:13.394Z,1009.46
2018-03-01T02:35:13.401Z,1009.45
2018-03-01T02:36:13.393Z,1009.36
2018-03-01T02:37:13.395Z,1009.40
2018-03-01T02:38:13.403Z,1009.26
2018-03-01T02:39:13.376Z,1009.35
2018-03-01T02:40:13.386Z,1009.38
2018-03-01T02:41:13.381Z,1009.35
2018-03-01T02:42:13.388Z,1009.36
2018-03-01T02:43:13.387Z,1009.32
2018-03-01T02:44:13.394Z,1009.33
2018-03-01T02:45:13.380Z,1009.32
2018-03-01T02:46:13.408Z,1009.34
2018-03-01T02:47:13.388Z,1009.34
2018-03-01T02:48:13.415Z,1009.31
2018-03-01T02:49:13.404Z,1009.32
2018-03-01T02:50:13.369Z,1009.27
2018-03-01T02:51:13.359Z,1009.26
2018-03-01T02:52:13.358Z,1009.27
2018-03-01T02:53:13.357Z,1009.21
2018-03-01T02:54:13.374Z,1009.15
2018-03-01T02:55:13.369Z,1009.18
2018-03-01T02:56:13.357Z,1009.13
2018-03-01T02:57:13.388Z,1009.15
2018-03-01T02:58:13.399Z,1009.18
2018-03-01T02:59:13.356Z,1009.21
2018-03-01T03:00:13.378Z,1009.19
2018-03-01T03:01:13.373Z,1009.08
2018-03-01T03:02:13.351Z,1009.14
2018-03-01T03:03:13.385Z,1009.13
2018-03-01T03:04:13.359Z,1009.11
2018-03-01T03:05:13.347Z,1009.13
2018-03-01T03:06:13.336Z,1009.12
2018-03-01T03:07:13.353Z,1009.05
2018-03-01T03:08:13.349Z,1008.99
2018-03-01T03:09:13.343Z,1009.04
2018-03-01T03:10:13.355Z,1009.00
2018-03-01T03:11:13.340Z,1009.05
2018-03-01T03:12:13.330Z,1009.04
2018-03-01T03:13:13.368Z,1009.00
2018-03-01T03:14:13.317Z,1008.95
2018-03-01T03:15:13.326Z,1009.03
2018-03-01T03:16:13.343Z,1008.96
2018-03-01T03:17:13.375Z,1008.92
2018-03-01T03:18:13.333Z,1008.94
2018-03-01T03:19:13.327Z,1008.93
2018-03-01T03:20:13.318Z,1008.98
2018-03-01T03:21:13.315Z,1008.90
2018-03-01T03:22:13.327Z,1008.94
2018-03-01T03:23:13.315Z,1008.85
2018-03-01T03:24:13.339Z,1008.85
2018-03-01T03:25:13.299Z,1008.89
2018-03-01T03:26:13.302Z,1008.83
2018-03-01T03:27:13.317Z,1008.86
2018-03-01T03:28:13.307Z,1008.83
2018-03-01T03:29:13.305Z,1008.82
2018-03-01T03:30:13.330Z,1008.75
2018-03-01T03:31:13.300Z,1008.79
2018-03-01T03:32:13.308Z,1008.72
2018-03-01T03:33:13.292Z,1008.77
2018-03-01T03:34:13.291Z,1008.76
2018-03-01T03:35:13.300Z,1008.74
2018-03-01T03:36:13.290Z,1008.69
2018-03-01T03:37:13.285Z,1008.79
2018-03-01T03:38:13.279Z,1008.69
2018-03-01T03:39:13.285Z,1008.66
2018-03-01T03:40:13.284Z,1008.67
2018-03-01T03:41:13.285Z,1008.54
2018-03-01T03:42:13.286Z,1008.63
2018-03-01T03:43:13.269Z,1008.64
2018-03-01T03:44:13.389Z,1008.61
2018-03-01T03:45:13.288Z,1008.72
2018-03-01T03:46:13.285Z,1008.59
2018-03-01T03:47:13.288Z,1008.58
2018-03-01T03:48:13.266Z,1008.64
2018-03-01T03:49:13.259Z,1008.59
2018-03-01T03:50:13.266Z,1008.67
2018-03-01T03:51:13.261Z,1008.60
2018-03-01T03:52:13.262Z,1008.63
2018-03-01T03:53:13.356Z,1008.57
2018-03-01T03:54:13.257Z,1008.55
2018-03-01T03:55:13.255Z,1008.68
2018-03-01T03:56:13.259Z,1008.59
2018-03-01T03:57:13.251Z,1008.42
2018-03-01T03:58:13.251Z,1008.67
2018-03-01T03:59:13.247Z,1008.70
2018-03-01T04:00:13.260Z,1008.55
2018-03-01T04:01:13.246Z,1008.60
2018-03-01T04:02:13.248Z,1008.53
2018-03-01T04:03:13.292Z,1008.54
2018-03-01T04:04:13.236Z,1008.54
2018-03-01T04:05:13.242Z,1008.55
2018-03-01T04:06:13.242Z,1008.52
2018-03-01T04:07:13.236Z,1008.58
2018-03-01T04:08:13.233Z,1008.55
2018-03-01T04:09:13.257Z,1008.55
2018-03-01T04:10:13.236Z,1008.56
2018-03-01T04:11:13.228Z,1008.52
2018-03-01T04:12:13.237Z,1008.55
2018-03-01T04:13:13.979Z,1008.47
2018-03-01T04:14:13.228Z,1008.46
2018-03-01T04:15:13.223Z,1008.43
2018-03-01T04:16:13.217Z,1008.36
2018-03-01T04:17:13.213Z,1008.36
2018-03-01T04:18:13.219Z,1008.43
2018-03-01T04:19:13.214Z,1008.39
2018-03-01T04:20:13.254Z,1008.36
2018-03-01T04:21:13.212Z,1008.33
2018-03-01T04:22:13.201Z,1008.42
2018-03-01T04:23:13.215Z,1008.39
2018-03-01T04:24:13.209Z,1008.30
2018-03-01T04:25:13.214Z,1008.39
2018-03-01T04:26:13.209Z,1008.42
2018-03-01T04:27:13.196Z,1008.38
2018-03-01T04:28:13.194Z,1008.42
2018-03-01T04:29:13.196Z,1008.41
2018-03-01T04:30:13.204Z,1008.47
2018-03-01T04:31:13.201Z,1008.46
2018-03-01T04:32:13.190Z,1008.46
2018-03-01T04:33:13.187Z,1008.45
2018-03-01T04:34:13.194Z,1008.41
2018-03-01T04:35:13.190Z,1008.47
2018-03-01T04:36:13.192Z,1008.46
2018-03-01T04:37:13.182Z,1008.31
2018-03-01T04:38:13.183Z,1008.36
2018-03-01T04:39:13.179Z,1008.31
2018-03-01T04:40:13.174Z,1008.37
2018-03-01T04:41:13.180Z,1008.34
2018-03-01T04:42:13.171Z,1008.29
2018-03-01T04:43:13.167Z,1008.39
2018-03-01T04:44:13.976Z,1008.34
2018-03-01T04:45:13.176Z,1008.32
2018-03-01T04:46:13.169Z,1008.35
2018-03-01T04:47:13.170Z,1008.35
2018-03-01T04:48:13.171Z,1008.34
2018-03-01T04:49:13.185Z,1008.39
2018-03-01T04:50:13.160Z,1008.32
2018-03-01T04:51:13.154Z,1008.37
2018-03-01T04:52:13.157Z,1008.38
2018-03-01T04:53:13.162Z,1008.34
2018-03-01T04:54:13.165Z,1008.51
2018-03-01T04:55:13.157Z,1008.41
2018-03-01T04:56:13.168Z,1008.40
2018-03-01T04:57:13.151Z,1008.39
2018-03-01T04:58:13.148Z,1008.47
2018-03-01T04:59:13.162Z,1008.42
2018-03-01T05:00:13.170Z,1008.40
2018-03-01T05:01:13.164Z,1008.37
2018-03-01T05:02:13.155Z,1008.32
2018-03-01T05:03:13.138Z,1008.25
2018-03-01T05:04:13.138Z,1008.25
2018-03-01T05:05:13.136Z,1008.22
2018-03-01T05:06:13.144Z,1008.19
2018-03-01T05:07:13.156Z,1008.16
2018-03-01T05:08:13.125Z,1008.09
2018-03-01T05:09:13.136Z,1008.07
2018-03-01T05:10:13.247Z,1008.03
2018-03-01T05:11:13.175Z,1008.05
2018-03-01T05:12:13.163Z,1007.98
2018-03-01T05:13:13.141Z,1007.89
2018-03-01T05:14:13.126Z,1007.90
2018-03-01T05:15:13.158Z,1007.88
2018-03-01T05:16:13.155Z,1007.76
2018-03-01T05:17:13.107Z,1007.80
2018-03-01T05:18:13.135Z,1007.82
2018-03-01T05:19:13.116Z,1007.78
2018-03-01T05:20:13.129Z,1007.77
2018-03-01T05:21:13.109Z,1007.75
2018-03-01T05:22:13.144Z,1007.80
2018-03-01T05:23:13.110Z,1007.87
2018-03-01T05:24:13.123Z,1007.82
2018-03-01T05:25:13.113Z,1007.83
2018-03-01T05:26:13.104Z,1007.77
2018-03-01T05:27:13.101Z,1007.81
2018-03-01T05:28:13.098Z,1007.84
2018-03-01T05:29:13.107Z,1007.83
2018-03-01T05:30:13.094Z,1007.83
2018-03-01T05:31:13.114Z,1007.83
2018-03-01T05:32:13.102Z,1007.84
2018-03-01T05:33:13.100Z,1007.77
2018-03-01T05:34:13.093Z,1007.68
2018-03-01T05:35:13.088Z,1007.72
2018-03-01T05:36:13.080Z,1007.76
2018-03-01T05:37:13.088Z,1007.68
2018-03-01T05:38:13.082Z,1007.72
2018-03-01T05:39:13.074Z,1007.69
2018-03-01T05:40:13.078Z,1007.70
2018-03-01T05:41:13.091Z,1007.60
2018-03-01T05:42:13.074Z,1007.59
2018-03-01T05:43:13.076Z,1007.58
2018-03-01T05:44:13.116Z,1007.63
2018-03-01T05:45:13.116Z,1007.48
2018-03-01T05:46:13.080Z,1007.62
2018-03-01T05:47:13.081Z,1007.60
2018-03-01T05:48:13.068Z,1007.67
2018-03-01T05:49:13.135Z,1007.68
2018-03-01T05:50:13.065Z,1007.78
2018-03-01T05:51:13.059Z,1007.68
2018-03-01T05:52:13.065Z,1007.69
2018-03-01T05:53:13.069Z,1007.76
2018-03-01T05:54:13.059Z,1007.70
2018-03-01T05:55:13.060Z,1007.78
2018-03-01T05:56:13.069Z,1007.86
2018-03-01T05:57:13.107Z,1007.73
2018-03-01T05:58:13.050Z,1007.78
2018-03-01T05:59:13.053Z,1007.76
2018-03-01T06:00:13.048Z,1007.81
2018-03-01T06:01:13.045Z,1007.83
2018-03-01T06:02:13.050Z,1007.78
2018-03-01T06:03:13.044Z,1007.74
2018-03-01T06:04:13.044Z,1007.79
2018-03-01T06:05:13.052Z,1007.81
2018-03-01T06:06:13.053Z,1007.78
2018-03-01T06:07:13.051Z,1007.85
2018-03-01T06:08:13.039Z,1007.90
2018-03-01T06:09:13.040Z,1007.91
2018-03-01T06:10:13.032Z,1007.90
2018-03-01T06:11:13.040Z,1007.87
2018-03-01T06:12:13.040Z,1007.92
2018-03-01T06:13:13.065Z,1007.99
2018-03-01T06:14:13.029Z,1008.00
2018-03-01T06:15:13.026Z,1007.95
2018-03-01T06:16:13.020Z,1008.05
2018-03-01T06:17:13.025Z,1008.05
2018-03-01T06:18:13.041Z,1007.98
2018-03-01T06:19:13.020Z,1008.03
2018-03-01T06:20:13.032Z,1008.03
2018-03-01T06:21:13.017Z,1008.08
2018-03-01T06:22:13.098Z,1008.13
2018-03-01T06:23:13.025Z,1008.11
2018-03-01T06:24:13.022Z,1008.08
2018-03-01T06:25:13.040Z,1008.11
2018-03-01T06:26:13.009Z,1008.14
2018-03-01T06:27:13.014Z,1008.14
2018-03-01T06:28:12.996Z,1008.15
2018-03-01T06:29:13.016Z,1008.12
2018-03-01T06:30:13.021Z,1008.10
2018-03-01T06:31:13.016Z,1008.13
2018-03-01T06:32:13.029Z,1008.16
2018-03-01T06:33:13.034Z,1008.14
2018-03-01T06:34:13.011Z,1008.16
2018-03-01T06:35:13.006Z,1008.19
2018-03-01T06:36:13.002Z,1008.17
2018-03-01T06:37:12.995Z,1008.16
2018-03-01T06:38:12.993Z,1008.12
2018-03-01T06:39:12.993Z,1008.09
2018-03-01T06:40:12.992Z,1008.10
2018-03-01T06:41:12.992Z,1008.04
2018-03-01T06:42:12.995Z,1008.02
2018-03-01T06:43:13.002Z,1007.99
2018-03-01T06:44:13.037Z,1007.98
2018-03-01T06:45:12.986Z,1007.93
2018-03-01T06:46:12.989Z,1007.96
2018-03-01T06:47:12.985Z,1007.93
2018-03-01T06:48:12.976Z,1007.89
2018-03-01T06:49:13.043Z,1007.83
2018-03-01T06:50:12.995Z,1007.75
2018-03-01T06:51:12.978Z,1007.79
2018-03-01T06:52:12.982Z,1007.77
2018-03-01T06:53:13.023Z,1007.78
2018-03-01T06:54:12.992Z,1007.74
2018-03-01T06:55:13.003Z,1007.74
2018-03-01T06:56:12.982Z,1007.74
2018-03-01T06:57:12.986Z,1007.74
2018-03-01T06:58:13.002Z,1007.72
2018-03-01T06:59:12.970Z,1007.74
2018-03-01T07:00:12.962Z,1007.61
2018-03-01T07:01:12.970Z,1007.63
2018-03-01T07:02:12.982Z,1007.51
2018-03-01T07:03:12.967Z,1007.52
2018-03-01T07:04:12.962Z,1007.34
2018-03-01T07:05:12.960Z,1007.47
2018-03-01T07:06:12.965Z,1007.51
2018-03-01T07:07:12.976Z,1007.49
2018-03-01T07:08:12.960Z,1007.48
2018-03-01T07:09:12.959Z,1007.49
2018-03-01T07:10:12.967Z,1007.45
2018-03-01T07:11:13.039Z,1007.47
2018-03-01T07:12:12.954Z,1007.53
2018-03-01T07:13:12.945Z,1007.44
2018-03-01T07:14:12.979Z,1007.40
2018-03-01T07:15:13.011Z,1007.42
2018-03-01T07:16:12.953Z,1007.30
2018-03-01T07:17:12.950Z,1007.24
2018-03-01T07:18:12.951Z,1007.23
2018-03-01T07:19:12.956Z,1007.16
2018-03-01T07:20:12.942Z,1007.17
2018-03-01T07:21:12.954Z,1007.18
2018-03-01T07:22:12.942Z,1007.18
2018-03-01T07:23:12.944Z,1007.19
2018-03-01T07:24:12.941Z,1007.24
2018-03-01T07:25:12.963Z,1007.23
2018-03-01T07:26:12.943Z,1007.25
2018-03-01T07:27:12.943Z,1007.25
2018-03-01T07:28:13.010Z,1007.37
2018-03-01T07:29:12.960Z,1007.29
2018-03-01T07:30:12.946Z,1007.37
2018-03-01T07:31:12.942Z,1007.36
2018-03-01T07:32:12.943Z,1007.42
2018-03-01T07:33:12.948Z,1007.46
2018-03-01T07:34:12.939Z,1007.33
2018-03-01T07:35:12.951Z,1007.39
2018-03-01T07:36:12.926Z,1007.42
2018-03-01T07:37:12.948Z,1007.42
2018-03-01T07:38:12.929Z,1007.38
2018-03-01T07:39:12.957Z,1007.34
2018-03-01T07:40:12.961Z,1007.34
2018-03-01T07:41:12.932Z,1007.36
2018-03-01T07:42:12.918Z,1007.26
2018-03-01T07:43:12.976Z,1007.30
2018-03-01T07:44:12.953Z,1007.29
2018-03-01T07:45:12.957Z,1007.36
2018-03-01T07:46:12.980Z,1007.40
2018-03-01T07:47:12.937Z,1007.40
2018-03-01T07:48:12.943Z,1007.41
2018-03-01T07:49:12.937Z,1007.40
2018-03-01T07:50:13.104Z,1007.27
2018-03-01T07:51:12.952Z,1007.30
2018-03-01T07:52:12.970Z,1007.22
2018-03-01T07:53:12.934Z,1007.20
2018-03-01T07:54:12.935Z,1007.24
2018-03-01T07:55:12.938Z,1007.25
2018-03-01T07:56:12.961Z,1007.16
2018-03-01T07:57:12.970Z,1007.27
2018-03-01T07:58:12.936Z,1007.18
2018-03-01T07:59:13.071Z,1007.27
2018-03-01T08:00:12.954Z,1007.37
2018-03-01T08:01:12.946Z,1007.20
2018-03-01T08:02:12.962Z,1007.22
2018-03-01T08:03:12.969Z,1007.18
2018-03-01T08:04:12.969Z,1007.33
2018-03-01T08:05:12.956Z,1007.34
2018-03-01T08:06:12.968Z,1007.34
2018-03-01T08:07:12.967Z,1007.31
2018-03-01T08:08:12.977Z,1007.39
2018-03-01T08:09:12.978Z,1007.38
2018-03-01T08:10:13.005Z,1007.31
2018-03-01T08:11:12.997Z,1007.27
2018-03-01T08:12:13.017Z,1007.27
2018-03-01T08:13:13.016Z,1007.27
2018-03-01T08:14:13.020Z,1007.32
2018-03-01T08:15:13.043Z,1007.19
2018-03-01T08:16:13.018Z,1007.32
2018-03-01T08:17:13.017Z,1007.33
2018-03-01T08:18:13.026Z,1007.26
2018-03-01T08:19:13.030Z,1007.37
2018-03-01T08:20:13.056Z,1007.33
2018-03-01T08:21:13.053Z,1007.27
2018-03-01T08:22:13.144Z,1007.24
2018-03-01T08:23:13.053Z,1007.31
2018-03-01T08:24:13.062Z,1007.23
2018-03-01T08:25:13.064Z,1007.25
2018-03-01T08:26:13.077Z,1007.26
2018-03-01T08:27:13.069Z,1007.27
2018-03-01T08:28:13.071Z,1007.32
2018-03-01T08:29:13.084Z,1007.27
2018-03-01T08:30:13.187Z,1007.25
2018-03-01T08:31:13.084Z,1007.16
2018-03-01T08:32:13.101Z,1007.21
2018-03-01T08:33:13.100Z,1007.16
2018-03-01T08:34:13.105Z,1007.25
2018-03-01T08:35:13.127Z,1007.15
2018-03-01T08:36:13.118Z,1007.03
2018-03-01T08:37:13.131Z,1007.21
2018-03-01T08:38:13.140Z,1007.25
2018-03-01T08:39:13.133Z,1007.10
2018-03-01T08:40:13.244Z,1007.13
2018-03-01T08:41:13.145Z,1007.11
2018-03-01T08:42:13.159Z,1007.08
2018-03-01T08:43:13.168Z,1007.05
2018-03-01T08:44:13.162Z,1007.14
2018-03-01T08:45:13.171Z,1007.07
2018-03-01T08:46:13.192Z,1007.17
2018-03-01T08:47:13.201Z,1007.02
2018-03-01T08:48:13.192Z,1007.07
2018-03-01T08:49:13.193Z,1007.07
2018-03-01T08:50:13.204Z,1007.16
2018-03-01T08:51:13.201Z,1007.12
2018-03-01T08:52:13.219Z,1007.11
2018-03-01T08:53:13.246Z,1007.06
2018-03-01T08:54:13.242Z,1007.00
2018-03-01T08:55:13.243Z,1006.99
2018-03-01T08:56:13.248Z,1006.93
2018-03-01T08:57:13.245Z,1006.85
2018-03-01T08:58:13.273Z,1006.90
2018-03-01T08:59:13.271Z,1006.92
2018-03-01T09:00:13.282Z,1006.80
2018-03-01T09:01:13.286Z,1006.80
2018-03-01T09:02:13.296Z,1006.87
2018-03-01T09:03:13.355Z,1006.80
2018-03-01T09:04:13.313Z,1006.83
2018-03-01T09:05:13.315Z,1006.73
2018-03-01T09:06:13.324Z,1006.77
2018-03-01T09:07:13.340Z,1006.72
2018-03-01T09:08:13.346Z,1006.66
2018-03-01T09:09:13.350Z,1006.66
2018-03-01T09:10:13.370Z,1006.69
2018-03-01T09:11:13.380Z,1006.58
2018-03-01T09:12:13.435Z,1006.50
2018-03-01T09:13:13.380Z,1006.60
2018-03-01T09:14:13.401Z,1006.60
2018-03-01T09:15:13.404Z,1006.54
2018-03-01T09:16:13.412Z,1006.67
2018-03-01T09:17:13.427Z,1006.52
2018-03-01T09:18:13.428Z,1006.55
2018-03-01T09:19:13.441Z,1006.59
2018-03-01T09:20:13.441Z,1006.54
2018-03-01T09:21:13.458Z,1006.50
2018-03-01T09:22:13.465Z,1006.44
2018-03-01T09:23:13.468Z,1006.36
2018-03-01T09:24:13.492Z,1006.43
2018-03-01T09:25:13.523Z,1006.43
2018-03-01T09:26:13.499Z,1006.45
2018-03-01T09:27:13.522Z,1006.50
2018-03-01T09:28:13.525Z,1006.42
2018-03-01T09:29:13.536Z,1006.45
2018-03-01T09:30:13.563Z,1006.40
2018-03-01T09:31:13.560Z,1006.46
2018-03-01T09:32:13.565Z,1006.43
2018-03-01T09:33:13.570Z,1006.33
2018-03-01T09:34:13.582Z,1006.44
2018-03-01T09:35:13.589Z,1006.48
2018-03-01T09:36:13.595Z,1006.43
2018-03-01T09:37:13.763Z,1006.22
2018-03-01T09:38:13.621Z,1006.45
2018-03-01T09:39:13.627Z,1006.28
2018-03-01T09:40:13.635Z,1006.43
2018-03-01T09:41:13.646Z,1006.38
2018-03-01T09:42:13.663Z,1006.28
2018-03-01T09:43:13.665Z,1006.27
2018-03-01T09:44:13.712Z,1006.33
2018-03-01T09:45:13.689Z,1006.36
2018-03-01T09:46:13.696Z,1006.23
2018-03-01T09:47:13.710Z,1006.21
2018-03-01T09:48:14.293Z,1006.18
2018-03-01T09:49:13.726Z,1006.33
2018-03-01T09:50:13.735Z,1006.21
2018-03-01T09:51:13.746Z,1006.22
2018-03-01T09:52:13.754Z,1006.22
2018-03-01T09:53:13.761Z,1006.10
2018-03-01T09:54:13.774Z,1006.12
2018-03-01T09:55:13.793Z,1006.12
2018-03-01T09:56:13.780Z,1006.09
2018-03-01T09:57:13.803Z,1006.04
2018-03-01T09:58:13.815Z,1006.15
2018-03-01T09:59:13.821Z,1006.10
2018-03-01T10:00:13.831Z,1006.26
2018-03-01T10:01:13.847Z,1006.26
2018-03-01T10:02:13.855Z,1006.15
2018-03-01T10:03:13.876Z,1006.12
2018-03-01T10:04:13.869Z,1006.18
2018-03-01T10:05:13.879Z,1006.11
2018-03-01T10:06:14.216Z,1006.15
2018-03-01T10:07:13.946Z,1006.04
2018-03-01T10:08:13.974Z,1006.08
2018-03-01T10:09:13.921Z,1006.04
2018-03-01T10:10:13.924Z,1006.05
2018-03-01T10:11:13.949Z,1006.00
2018-03-01T10:12:13.940Z,1006.02
2018-03-01T10:13:13.958Z,1005.99
2018-03-01T10:14:14.015Z,1005.95
2018-03-01T10:15:13.993Z,1005.84
2018-03-01T10:16:14.029Z,1005.93
2018-03-01T10:18:14.181Z,1005.85
2018-03-01T10:21:14.060Z,1005.83
2018-03-01T10:22:14.429Z,1005.73
2018-03-01T10:23:15.043Z,1005.78
2018-03-01T10:24:14.088Z,1005.82
2018-03-01T10:25:14.093Z,1005.73
2018-03-01T10:27:14.707Z,1005.84
2018-03-01T10:28:14.122Z,1005.71
2018-03-01T10:29:14.247Z,1005.66
2018-03-01T10:30:14.727Z,1005.70
2018-03-01T10:31:14.254Z,1005.70
2018-03-01T10:32:14.167Z,1005.70
2018-03-01T10:33:14.242Z,1005.73
2018-03-01T10:34:14.195Z,1005.65
2018-03-01T10:35:14.611Z,1005.72
2018-03-01T10:36:14.207Z,1005.61
2018-03-01T10:37:14.220Z,1005.57
2018-03-01T10:38:14.230Z,1005.53
2018-03-01T10:39:14.245Z,1005.51
2018-03-01T10:40:14.262Z,1005.53
2018-03-01T10:41:14.262Z,1005.53
2018-03-01T10:42:14.275Z,1005.58
2018-03-01T10:43:14.296Z,1005.50
2018-03-01T10:44:14.322Z,1005.60
2018-03-01T10:45:14.341Z,1005.43
2018-03-01T10:46:14.326Z,1005.48
2018-03-01T10:47:14.374Z,1005.43
2018-03-01T10:49:14.686Z,1005.46
2018-03-01T10:50:14.373Z,1005.39
2018-03-01T10:51:14.606Z,1005.43
2018-03-01T10:52:14.401Z,1005.43
2018-03-01T10:53:14.407Z,1005.34
2018-03-01T10:54:14.762Z,1005.31
2018-03-01T10:55:14.443Z,1005.36
2018-03-01T10:56:14.442Z,1005.35
2018-03-01T10:57:14.457Z,1005.32
2018-03-01T10:58:14.475Z,1005.28
2018-03-01T10:59:14.526Z,1005.36
2018-03-01T11:00:14.512Z,1005.26
2018-03-01T11:01:14.503Z,1005.23
2018-03-01T11:03:14.967Z,1005.10
2018-03-01T11:04:14.638Z,1005.14
2018-03-01T11:05:14.744Z,1005.12
2018-03-01T11:06:14.805Z,1005.07
2018-03-01T11:07:14.584Z,1005.01
2018-03-01T11:08:14.624Z,1005.09
2018-03-01T11:09:17.040Z,1005.18
2018-03-01T11:10:14.615Z,1005.05
2018-03-01T11:11:14.629Z,1004.95
2018-03-01T11:13:14.649Z,1004.94
2018-03-01T11:14:14.666Z,1004.89
2018-03-01T11:15:14.684Z,1004.83
2018-03-01T11:16:14.713Z,1004.84
2018-03-01T11:17:14.715Z,1004.69
2018-03-01T11:18:14.707Z,1004.82
2018-03-01T11:19:14.737Z,1004.81
2018-03-01T11:22:14.763Z,1004.74
2018-03-01T11:23:14.782Z,1004.82
2018-03-01T11:24:14.786Z,1004.77
2018-03-01T11:25:14.801Z,1004.84
2018-03-01T11:26:14.805Z,1004.78
2018-03-01T11:27:14.824Z,1004.83
2018-03-01T11:28:14.849Z,1004.73
2018-03-01T11:29:14.894Z,1004.63
2018-03-01T11:30:15.190Z,1004.64
2018-03-01T11:31:14.877Z,1004.72
2018-03-01T11:32:14.891Z,1004.62
2018-03-01T11:33:14.901Z,1004.62
2018-03-01T11:34:14.922Z,1004.53
2018-03-01T11:35:14.925Z,1004.60
2018-03-01T11:36:14.935Z,1004.58
2018-03-01T11:37:14.954Z,1004.59
2018-03-01T11:38:14.956Z,1004.53
2018-03-01T11:39:14.976Z,1004.67
2018-03-01T11:40:15.009Z,1004.56
2018-03-01T11:41:15.045Z,1004.52
2018-03-01T11:42:15.022Z,1004.62
2018-03-01T11:43:15.029Z,1004.60
2018-03-01T11:44:15.089Z,1004.67
2018-03-01T11:45:15.052Z,1004.65
2018-03-01T11:46:15.072Z,1004.73
2018-03-01T11:47:15.091Z,1004.70
2018-03-01T11:48:15.084Z,1004.68
2018-03-01T11:49:15.102Z,1004.70
2018-03-01T11:50:15.115Z,1004.54
2018-03-01T11:51:15.165Z,1004.56
2018-03-01T11:52:15.153Z,1004.47
2018-03-01T11:53:15.173Z,1004.54
2018-03-01T11:54:15.446Z,1004.58
2018-03-01T11:55:15.164Z,1004.50
2018-03-01T11:56:15.174Z,1004.44
2018-03-01T11:57:15.183Z,1004.47
2018-03-01T11:58:15.199Z,1004.36
2018-03-01T11:59:15.278Z,1004.26
2018-03-01T12:00:15.278Z,1004.33
2018-03-01T12:01:15.240Z,1004.28
2018-03-01T12:02:15.242Z,1004.29
2018-03-01T12:03:15.249Z,1004.30
2018-03-01T12:04:15.262Z,1004.25
2018-03-01T12:05:15.276Z,1004.19
2018-03-01T12:06:15.288Z,1004.16
2018-03-01T12:07:15.303Z,1004.11
2018-03-01T12:08:15.317Z,1004.09
2018-03-01T12:09:15.363Z,1004.04
2018-03-01T12:10:15.334Z,1004.15
2018-03-01T12:11:15.357Z,1004.11
2018-03-01T12:12:15.389Z,1004.09
2018-03-01T12:13:15.390Z,1004.09
2018-03-01T12:14:15.391Z,1004.08